Decoded Metar for KAUS (AUSTIN in TX, USA) (IATA:AUS) | Meteo·Mobile Aviation Weather
aviador You're here:

KAUS Decoded Metar

AUSTIN in TX, USA
Report Time2018-12-17 14:53:00
UTC Time2018-12-17 15:40:57
Flight Rules vfr VFR
WindCalm
Visibility9999 m
Phenomena:N/A
Clouds:Broken 150 Hf
Overcast 200 Hf
Expected CloudBase > 2,000 ft AGL from Temp-Dew spread
Ceiling15,000 ft
Temp11°C (ISA -3)
Dew Point06°C (72% RH)
AAT10.1°C
QNH1025 hPa
Density Alt-79 ft
Elevation545 ft
Report Wrong Elevation
Raw Report
KAUS 171453Z 00000KT 10SM BKN150 OVC200 11/06 A3027 RMK AO2 SLP253
T01060056 53008 $=

Extra information for KAUS:More info

Metar Taf Metar & Taf Last 4 Metars F.Rules Stats Wind Profile Meteogram Temp Stats Airport Information Weather charts Add Link Nearby VenuesMetar ALERT Operation Metar Decoded Social comments

AIRNAV info for KAUS